Time;durP1;ratioP1;P1;durP2;ratioP2;P2;SDS_P1;SDS_P2;PMS_P1;PMS_P2;Temp;Humidity;BMP_temperature;BMP_pressure;BME280_temperature;BME280_humidity;BME280_pressure;Samples;Min_cycle;Max_cycle;Signal;HPM_P1;HPM_P2
2022/03/24 00:00:49;;;;;;;;;;;;;;;17.01;18.57;100055.06;4465804;32;34487;-84
2022/03/24 00:03:17;;;;;;;;;;;;;;;16.60;18.61;100061.06;4467331;32;34305;-85
2022/03/24 00:05:50;;;;;;;;;;;;;;;16.99;18.58;100056.78;4467028;32;33540;-82
2022/03/24 00:08:19;;;;;;;;;;;;;;;16.88;18.76;100059.41;4467591;32;33634;-83
2022/03/24 00:10:46;;;;;;;;;;;;;;;16.85;19.08;100055.91;4467422;32;34178;-83
2022/03/24 00:13:14;;;;;;;;;;;;;;;17.02;18.86;100047.19;4461252;32;33877;-85
2022/03/24 00:15:41;;;;;;;;;;;;;;;17.09;18.83;100047.22;4461522;32;32984;-81
2022/03/24 00:18:08;;;;;;;;;;;;;;;17.06;18.70;100042.84;4453052;32;34133;-83
2022/03/24 00:20:36;;;;;;;;;;;;;;;16.95;18.71;100045.44;4467889;32;33803;-85
2022/03/24 00:23:03;;;;;;;;;;;;;;;17.00;18.83;100042.81;4462371;32;35056;-83
2022/03/24 00:25:30;;;;;;;;;;;;;;;16.96;18.89;100031.47;4452065;32;34016;-82
2022/03/24 00:27:58;;;;;;;;;;;;;;;16.94;18.97;100028.00;4458895;32;34959;-81
2022/03/24 00:30:25;;;;;;;;;;;;;;;16.90;19.45;100021.00;4452078;32;34552;-84
2022/03/24 00:32:53;;;;;;;;;;;;;;;17.15;18.98;100010.50;4454878;32;34341;-83
2022/03/24 00:35:21;;;;;;;;;;;;;;;16.98;19.39;100019.25;4460592;32;33503;-83
2022/03/24 00:37:49;;;;;;;;;;;;;;;17.15;19.10;100018.38;4467321;32;34202;-85
2022/03/24 00:40:17;;;;;;;;;;;;;;;17.18;19.11;100010.50;4467204;32;34455;-83
2022/03/24 00:42:45;;;;;;;;;;;;;;;17.25;18.99;100007.88;4449891;32;34427;-82
2022/03/24 00:45:13;;;;;;;;;;;;;;;17.02;19.00;100005.28;4467295;32;33481;-83
2022/03/24 00:47:40;;;;;;;;;;;;;;;16.97;18.89;100001.81;4452619;32;33189;-86
2022/03/24 00:50:11;;;;;;;;;;;;;;;17.05;18.84;100000.91;4467532;32;35202;-85
2022/03/24 00:52:43;;;;;;;;;;;;;;;16.95;19.28;99998.28;4463498;32;34026;-80
2022/03/24 00:55:12;;;;;;;;;;;;;;;16.57;19.59;99999.97;4443497;32;33164;-81
2022/03/24 00:57:40;;;;;;;;;;;;;;;16.68;19.82;100004.34;4462423;32;34666;-83
2022/03/24 01:00:08;;;;;;;;;;;;;;;16.84;19.38;100005.28;4462806;32;35140;-81
2022/03/24 01:02:38;;;;;;;;;;;;;;;16.49;19.21;99992.09;4459419;32;34939;-83
2022/03/24 01:05:06;;;;;;;;;;;;;;;16.51;19.46;99996.44;4454899;32;32946;-85
2022/03/24 01:07:34;;;;;;;;;;;;;;;16.69;19.44;99990.38;4462167;32;33828;-83
2022/03/24 01:10:02;;;;;;;;;;;;;;;16.88;19.27;99995.66;4457655;32;35034;-81
2022/03/24 01:12:30;;;;;;;;;;;;;;;16.54;19.77;99987.75;4461041;32;33705;-82
2022/03/24 01:14:57;;;;;;;;;;;;;;;16.79;19.61;99983.44;4464481;32;33033;-81
2022/03/24 01:17:26;;;;;;;;;;;;;;;16.74;19.30;99977.31;4460495;32;33640;-83
2022/03/24 01:19:54;;;;;;;;;;;;;;;16.90;19.43;99971.25;4466811;32;34267;-86
2022/03/24 01:22:22;;;;;;;;;;;;;;;16.74;19.22;99972.97;4442347;32;32604;-83
2022/03/24 01:24:49;;;;;;;;;;;;;;;16.63;19.16;99973.78;4445463;32;34019;-82
2022/03/24 01:27:18;;;;;;;;;;;;;;;16.46;19.42;99972.03;4445719;32;34191;-84
2022/03/24 01:29:45;;;;;;;;;;;;;;;16.61;19.62;99970.31;4463413;32;34266;-82
2022/03/24 01:32:12;;;;;;;;;;;;;;;16.49;19.83;99969.41;4452013;32;34392;-83
2022/03/24 01:34:40;;;;;;;;;;;;;;;16.76;19.46;99965.13;4465887;32;33276;-82
2022/03/24 01:37:07;;;;;;;;;;;;;;;16.38;19.61;99958.06;4455924;32;35027;-85
2022/03/24 01:39:34;;;;;;;;;;;;;;;16.59;19.49;99958.94;4446325;32;34358;-83
2022/03/24 01:42:02;;;;;;;;;;;;;;;16.64;19.67;99965.09;4451257;32;33812;-85
2022/03/24 01:44:30;;;;;;;;;;;;;;;16.51;19.66;99962.44;4464739;32;33772;-83
2022/03/24 01:47:05;;;;;;;;;;;;;;;16.26;19.88;99958.03;4443046;32;34233;-86
2022/03/24 01:49:34;;;;;;;;;;;;;;;16.36;19.98;99959.78;4452502;32;34507;-84
2022/03/24 01:52:02;;;;;;;;;;;;;;;15.80;20.74;99960.50;4459601;32;34320;-85
2022/03/24 01:54:30;;;;;;;;;;;;;;;16.08;20.40;99963.22;4460886;32;33325;-86
2022/03/24 01:56:58;;;;;;;;;;;;;;;15.48;20.63;99953.34;4461704;32;34575;-86
2022/03/24 01:59:25;;;;;;;;;;;;;;;15.73;20.66;99951.75;4456668;32;34908;-84
2022/03/24 02:01:53;;;;;;;;;;;;;;;15.75;20.40;99949.13;4455899;32;33866;-85
2022/03/24 02:04:21;;;;;;;;;;;;;;;15.46;21.02;99949.84;4451199;32;34067;-85
2022/03/24 02:06:48;;;;;;;;;;;;;;;15.65;21.08;99947.34;4462291;32;34159;-85
2022/03/24 02:09:15;;;;;;;;;;;;;;;15.71;20.80;99936.91;4456805;32;34397;-86
2022/03/24 02:11:43;;;;;;;;;;;;;;;15.60;21.00;99933.34;4446384;32;34065;-84
2022/03/24 02:14:11;;;;;;;;;;;;;;;15.62;20.92;99942.09;4455151;32;33118;-83
2022/03/24 02:16:39;;;;;;;;;;;;;;;15.22;21.18;99942.72;4462259;32;33662;-84
2022/03/24 02:19:14;;;;;;;;;;;;;;;15.36;21.14;99937.59;4442772;32;34345;-85
2022/03/24 02:21:41;;;;;;;;;;;;;;;15.23;21.66;99933.19;4442726;32;34291;-86
2022/03/24 02:24:09;;;;;;;;;;;;;;;15.32;21.46;99928.00;4450415;32;33159;-83
2022/03/24 02:26:36;;;;;;;;;;;;;;;15.27;21.32;99929.72;4454932;32;33941;-83
2022/03/24 02:29:07;;;;;;;;;;;;;;;15.31;22.04;99934.09;4471155;32;34364;-85
2022/03/24 02:31:36;;;;;;;;;;;;;;;15.38;21.48;99930.66;4467295;32;34407;-83
2022/03/24 02:36:49;;;;;;;;;;;;;;;15.61;21.36;99928.16;4457144;32;33694;-83
2022/03/24 02:39:16;;;;;;;;;;;;;;;15.07;21.76;99930.44;4456446;32;34414;-84
2022/03/24 02:41:47;;;;;;;;;;;;;;;15.29;21.60;99934.06;4462483;32;34222;-82
2022/03/24 02:44:14;;;;;;;;;;;;;;;15.51;21.43;99928.97;4458511;32;34078;-88
2022/03/24 02:46:47;;;;;;;;;;;;;;;15.47;21.39;99937.66;4469888;32;34009;-88
2022/03/24 02:49:15;;;;;;;;;;;;;;;15.41;21.59;99932.37;4471341;32;35420;-85
2022/03/24 02:51:43;;;;;;;;;;;;;;;15.43;21.25;99942.00;4457631;32;33856;-83
2022/03/24 02:54:11;;;;;;;;;;;;;;;15.33;21.37;99940.19;4456357;32;33101;-84
2022/03/24 02:56:38;;;;;;;;;;;;;;;14.60;21.82;99930.94;4471535;32;33658;-85
2022/03/24 02:59:06;;;;;;;;;;;;;;;14.43;22.38;99937.72;4471306;32;34411;-86
2022/03/24 03:01:33;;;;;;;;;;;;;;;13.76;22.97;99937.88;4466577;32;34094;-83
2022/03/24 03:04:01;;;;;;;;;;;;;;;14.43;22.03;99932.50;4463158;32;33351;-84
2022/03/24 03:06:28;;;;;;;;;;;;;;;14.29;22.49;99945.41;4469514;32;33990;-86
2022/03/24 03:08:55;;;;;;;;;;;;;;;14.52;22.38;99943.06;4468325;32;34983;-83
2022/03/24 03:11:22;;;;;;;;;;;;;;;14.39;22.48;99941.16;4459661;32;34384;-86
2022/03/24 03:13:50;;;;;;;;;;;;;;;14.34;21.66;99932.41;4452733;32;34416;-84
2022/03/24 03:16:17;;;;;;;;;;;;;;;14.54;22.75;99938.72;4452959;32;35029;-86
2022/03/24 03:18:44;;;;;;;;;;;;;;;14.60;21.01;99930.09;4460874;32;35345;-84
2022/03/24 03:21:12;;;;;;;;;;;;;;;14.00;21.99;99929.44;4460874;32;34315;-86
2022/03/24 03:23:39;;;;;;;;;;;;;;;14.14;22.02;99928.75;4455452;32;34135;-84
2022/03/24 03:26:06;;;;;;;;;;;;;;;14.53;21.83;99929.16;4452507;32;35200;-84
2022/03/24 03:28:34;;;;;;;;;;;;;;;14.21;22.25;99915.78;4439486;32;34194;-86
2022/03/24 03:31:01;;;;;;;;;;;;;;;13.95;22.57;99917.25;4458813;32;33874;-84
2022/03/24 03:33:29;;;;;;;;;;;;;;;13.99;22.42;99921.62;4456311;32;34314;-85
2022/03/24 03:35:56;;;;;;;;;;;;;;;13.98;22.62;99915.53;4444002;32;34085;-84
2022/03/24 03:38:26;;;;;;;;;;;;;;;14.12;22.02;99924.37;4458846;32;35293;-86
2022/03/24 03:40:54;;;;;;;;;;;;;;;14.14;22.57;99918.31;4444742;32;34713;-86
2022/03/24 03:43:22;;;;;;;;;;;;;;;13.91;22.84;99918.06;4459312;32;33448;-84
2022/03/24 03:45:49;;;;;;;;;;;;;;;14.20;22.66;99915.75;4457694;32;34879;-86
2022/03/24 03:48:17;;;;;;;;;;;;;;;14.34;22.29;99912.41;4460542;32;35026;-85
2022/03/24 03:50:44;;;;;;;;;;;;;;;14.28;22.22;99911.47;4456780;32;34252;-83
2022/03/24 03:53:11;;;;;;;;;;;;;;;13.97;22.70;99921.59;4459961;32;33383;-85
2022/03/24 03:55:39;;;;;;;;;;;;;;;14.14;23.08;99910.50;4452600;32;33975;-86
2022/03/24 03:58:06;;;;;;;;;;;;;;;14.07;22.87;99914.75;4456613;32;35271;-85
2022/03/24 04:00:52;;;;;;;;;;;;;;;13.96;22.66;99911.16;4445264;32;34400;-85
2022/03/24 04:03:20;;;;;;;;;;;;;;;14.27;22.43;99912.34;4445695;32;33669;-85
2022/03/24 04:05:47;;;;;;;;;;;;;;;14.07;22.55;99907.81;4455966;32;33876;-85
2022/03/24 04:08:15;;;;;;;;;;;;;;;13.43;23.81;99900.97;4466806;32;34264;-88
2022/03/24 04:10:42;;;;;;;;;;;;;;;14.01;23.11;99910.34;4459920;32;34753;-87
2022/03/24 04:13:10;;;;;;;;;;;;;;;14.23;22.85;99903.63;4453215;32;33828;-85
2022/03/24 04:15:38;;;;;;;;;;;;;;;14.33;23.21;99904.59;4463646;32;34853;-86
2022/03/24 04:18:06;;;;;;;;;;;;;;;14.14;22.97;99905.28;4457371;32;34444;-86
2022/03/24 04:20:34;;;;;;;;;;;;;;;14.17;23.38;99907.88;4452694;32;32922;-87
2022/03/24 04:23:02;;;;;;;;;;;;;;;14.42;22.62;99898.56;4453223;32;33219;-86
2022/03/24 04:25:30;;;;;;;;;;;;;;;14.54;22.68;99910.00;4446420;32;33740;-87
2022/03/24 04:28:03;;;;;;;;;;;;;;;14.78;22.54;99909.34;4448059;32;34742;-86
2022/03/24 04:30:31;;;;;;;;;;;;;;;14.51;22.44;99902.19;4443476;32;35001;-85
2022/03/24 04:32:58;;;;;;;;;;;;;;;14.30;22.47;99899.34;4446235;32;33317;-88
2022/03/24 04:35:26;;;;;;;;;;;;;;;14.33;22.39;99900.25;4444209;32;33691;-88
2022/03/24 04:37:53;;;;;;;;;;;;;;;14.44;22.64;99889.91;4459415;32;33970;-86
2022/03/24 04:40:20;;;;;;;;;;;;;;;14.46;22.85;99893.38;4450200;32;34025;-85
2022/03/24 04:42:50;;;;;;;;;;;;;;;14.28;22.43;99896.72;4441351;32;33752;-86
2022/03/24 04:45:18;;;;;;;;;;;;;;;14.40;22.51;99895.97;4442993;32;33828;-83
2022/03/24 04:47:46;;;;;;;;;;;;;;;14.47;22.72;99892.56;4463402;32;34089;-84
2022/03/24 04:50:13;;;;;;;;;;;;;;;14.57;22.64;99894.37;4465292;32;34148;-82
2022/03/24 04:52:41;;;;;;;;;;;;;;;14.66;23.38;99897.94;4461423;32;34246;-83
2022/03/24 04:55:09;;;;;;;;;;;;;;;14.40;22.43;99890.75;4447826;32;34965;-85
2022/03/24 04:57:36;;;;;;;;;;;;;;;14.64;22.23;99894.44;4463575;32;34118;-83
2022/03/24 05:00:04;;;;;;;;;;;;;;;14.57;21.94;99894.37;4442947;32;33954;-84
2022/03/24 05:02:31;;;;;;;;;;;;;;;14.69;22.11;99893.59;4448466;32;33740;-85
2022/03/24 05:04:58;;;;;;;;;;;;;;;14.69;21.83;99893.59;4467333;32;33276;-79
2022/03/24 05:07:27;;;;;;;;;;;;;;;14.69;22.06;99892.75;4453709;32;36334;-84
2022/03/24 05:09:54;;;;;;;;;;;;;;;14.88;21.39;99902.44;4452471;32;33918;-83
2022/03/24 05:12:21;;;;;;;;;;;;;;;15.39;21.34;99897.56;4453708;32;33288;-83
2022/03/24 05:14:50;;;;;;;;;;;;;;;15.56;20.98;99896.75;4453610;32;34275;-84
2022/03/24 05:17:17;;;;;;;;;;;;;;;16.21;20.24;99892.63;4456627;32;33899;-86
2022/03/24 05:19:47;;;;;;;;;;;;;;;16.44;20.01;99887.41;4446650;32;33723;-83
2022/03/24 05:22:16;;;;;;;;;;;;;;;16.85;20.09;99889.16;4447531;32;34254;-81
2022/03/24 05:24:44;;;;;;;;;;;;;;;16.85;19.65;99897.00;4461401;32;33672;-83
2022/03/24 05:27:11;;;;;;;;;;;;;;;16.96;19.86;99890.00;4454500;32;34820;-82
2022/03/24 05:29:38;;;;;;;;;;;;;;;17.14;19.80;99886.50;4453978;32;35118;-81
2022/03/24 05:32:06;;;;;;;;;;;;;;;17.26;19.81;99893.44;4455968;32;33319;-82
2022/03/24 05:34:33;;;;;;;;;;;;;;;17.26;19.11;99882.97;4461234;32;32674;-81
2022/03/24 05:37:01;;;;;;;;;;;;;;;17.14;18.69;99883.88;4464749;32;35281;-81
2022/03/24 05:39:28;;;;;;;;;;;;;;;17.00;19.68;99891.75;4456866;32;35145;-80
2022/03/24 05:41:57;;;;;;;;;;;;;;;17.34;19.75;99886.44;4460420;32;34216;-81
2022/03/24 05:44:25;;;;;;;;;;;;;;;17.36;19.06;99887.31;4463714;32;35065;-80
2022/03/24 05:46:52;;;;;;;;;;;;;;;17.39;19.59;99889.94;4456405;32;34303;-81
2022/03/24 05:49:19;;;;;;;;;;;;;;;17.32;18.46;99882.09;4451343;32;34827;-80
2022/03/24 05:51:49;;;;;;;;;;;;;;;17.18;19.24;99887.37;4451478;32;33499;-81
2022/03/24 05:54:17;;;;;;;;;;;;;;;16.94;18.33;99885.69;4440018;32;34906;-79
2022/03/24 05:56:44;;;;;;;;;;;;;;;16.91;19.55;99889.16;4461951;32;33172;-84
2022/03/24 05:59:12;;;;;;;;;;;;;;;17.34;19.26;99886.44;4447282;32;34760;-84
2022/03/24 06:01:39;;;;;;;;;;;;;;;17.50;19.09;99888.16;4439581;32;33860;-81
2022/03/24 06:04:07;;;;;;;;;;;;;;;17.51;19.23;99889.88;4438252;32;34220;-83
2022/03/24 06:06:35;;;;;;;;;;;;;;;17.38;17.67;99888.16;4446347;32;34822;-85
2022/03/24 06:09:03;;;;;;;;;;;;;;;17.57;17.78;99893.34;4447807;32;35011;-84
2022/03/24 06:11:30;;;;;;;;;;;;;;;16.92;17.36;99888.28;4461094;32;33537;-82
2022/03/24 06:13:57;;;;;;;;;;;;;;;17.59;17.44;99887.22;4438820;32;34116;-81
2022/03/24 06:16:25;;;;;;;;;;;;;;;17.17;16.97;99883.88;4466895;32;34503;-80
2022/03/24 06:18:53;;;;;;;;;;;;;;;18.46;15.82;99884.09;4466986;32;34979;-81
2022/03/24 06:21:20;;;;;;;;;;;;;;;18.11;16.48;99881.75;4466815;32;33006;-81
2022/03/24 06:23:47;;;;;;;;;;;;;;;17.56;16.41;99886.37;4462776;32;33853;-80
2022/03/24 06:26:16;;;;;;;;;;;;;;;18.03;16.19;99877.41;4451336;32;33905;-80
2022/03/24 06:28:43;;;;;;;;;;;;;;;18.18;16.17;99872.06;4450828;32;35013;-81
2022/03/24 06:31:12;;;;;;;;;;;;;;;18.92;15.62;99881.09;4451204;32;34309;-81
2022/03/24 06:33:40;;;;;;;;;;;;;;;18.63;15.46;99880.47;4453677;32;34939;-81
2022/03/24 06:36:08;;;;;;;;;;;;;;;18.35;15.84;99874.56;4466437;32;35287;-82
2022/03/24 06:38:36;;;;;;;;;;;;;;;18.70;15.42;99880.44;4463206;32;34413;-81
2022/03/24 06:41:05;;;;;;;;;;;;;;;18.16;15.79;99881.72;4455402;32;33344;-81
2022/03/24 06:43:34;;;;;;;;;;;;;;;18.34;15.73;99873.72;4439599;32;34868;-81
2022/03/24 06:46:01;;;;;;;;;;;;;;;18.48;16.10;99876.19;4439084;32;34943;-81
2022/03/24 06:48:29;;;;;;;;;;;;;;;18.11;15.99;99870.38;4453111;32;35228;-81
2022/03/24 06:50:56;;;;;;;;;;;;;;;17.72;16.01;99874.91;4452793;32;33939;-81
2022/03/24 06:53:23;;;;;;;;;;;;;;;17.96;16.60;99874.84;4452827;32;33320;-81
2022/03/24 06:55:51;;;;;;;;;;;;;;;18.82;15.39;99875.94;4452917;32;33888;-82
2022/03/24 06:58:18;;;;;;;;;;;;;;;18.39;15.92;99871.91;4452910;32;33992;-81
2022/03/24 07:00:45;;;;;;;;;;;;;;;18.36;15.56;99885.06;4455361;32;34288;-85
2022/03/24 07:03:14;;;;;;;;;;;;;;;18.15;15.55;99882.59;4461542;32;34874;-79
2022/03/24 07:05:41;;;;;;;;;;;;;;;17.60;16.09;99878.47;4452551;32;34601;-80
2022/03/24 07:08:09;;;;;;;;;;;;;;;18.07;15.34;99880.03;4455792;32;34296;-80
2022/03/24 07:10:37;;;;;;;;;;;;;;;17.57;16.43;99888.09;4463221;32;33480;-80
2022/03/24 07:13:04;;;;;;;;;;;;;;;17.70;15.72;99874.06;4468300;32;35071;-81
2022/03/24 07:15:32;;;;;;;;;;;;;;;18.24;15.29;99877.28;4468755;32;35200;-81
2022/03/24 07:17:59;;;;;;;;;;;;;;;17.47;16.36;99879.41;4468261;32;34527;-80
2022/03/24 07:20:26;;;;;;;;;;;;;;;17.75;15.98;99875.81;4468212;32;33385;-79
2022/03/24 07:22:57;;;;;;;;;;;;;;;18.60;14.96;99872.59;4474391;32;34321;-80
2022/03/24 07:25:25;;;;;;;;;;;;;;;18.51;15.45;99870.94;4484460;32;35340;-81
2022/03/24 07:27:52;;;;;;;;;;;;;;;18.67;15.32;99869.03;4484150;32;33726;-81
2022/03/24 07:30:19;;;;;;;;;;;;;;;18.01;15.59;99864.31;4484111;32;34218;-81
2022/03/24 07:32:47;;;;;;;;;;;;;;;17.68;15.66;99871.44;4468475;32;34422;-81
2022/03/24 07:35:14;;;;;;;;;;;;;;;18.20;15.03;99865.91;4454024;32;33969;-80
2022/03/24 07:37:42;;;;;;;;;;;;;;;18.01;15.27;99871.31;4471412;32;33952;-81
2022/03/24 07:40:10;;;;;;;;;;;;;;;18.36;15.51;99866.66;4467206;32;33379;-86
2022/03/24 07:42:37;;;;;;;;;;;;;;;17.86;16.04;99865.25;4455845;32;34073;-81
2022/03/24 07:45:05;;;;;;;;;;;;;;;18.78;14.95;99863.72;4468026;32;34231;-78
2022/03/24 07:47:32;;;;;;;;;;;;;;;18.64;14.97;99871.72;4453890;32;34847;-79
2022/03/24 07:49:59;;;;;;;;;;;;;;;19.22;14.62;99873.78;4457897;32;32930;-80
2022/03/24 07:52:27;;;;;;;;;;;;;;;19.01;14.63;99871.37;4467916;32;34353;-81
2022/03/24 07:55:00;;;;;;;;;;;;;;;18.40;15.20;99867.53;4467964;32;34053;-81
2022/03/24 07:57:30;;;;;;;;;;;;;;;18.63;14.73;99865.56;4468106;32;34386;-82
2022/03/24 07:59:58;;;;;;;;;;;;;;;19.03;14.48;99861.75;4441776;32;33124;-80
2022/03/24 08:02:25;;;;;;;;;;;;;;;18.41;14.95;99857.03;4438439;32;33970;-80
2022/03/24 08:04:53;;;;;;;;;;;;;;;18.92;14.63;99864.47;4452630;32;34361;-80
2022/03/24 08:07:21;;;;;;;;;;;;;;;19.58;14.22;99855.81;4452569;32;34573;-81
2022/03/24 08:09:50;;;;;;;;;;;;;;;19.91;14.06;99852.75;4454793;32;33552;-80
2022/03/24 08:12:18;;;;;;;;;;;;;;;19.87;13.94;99850.22;4464002;32;33610;-81
2022/03/24 08:14:45;;;;;;;;;;;;;;;20.21;14.00;99852.34;4468205;32;35370;-82
2022/03/24 08:17:13;;;;;;;;;;;;;;;20.32;13.81;99853.91;4467975;32;34936;-81
2022/03/24 08:19:41;;;;;;;;;;;;;;;19.99;14.25;99857.91;4468128;32;33892;-81
2022/03/24 08:22:08;;;;;;;;;;;;;;;20.82;13.81;99852.22;4467813;32;34258;-81
2022/03/24 08:24:35;;;;;;;;;;;;;;;20.75;13.78;99850.56;4467679;32;35285;-81
2022/03/24 08:27:03;;;;;;;;;;;;;;;20.65;13.68;99851.66;4453824;32;35045;-81
2022/03/24 08:29:31;;;;;;;;;;;;;;;21.01;13.64;99859.78;4468206;32;33255;-81
2022/03/24 08:31:58;;;;;;;;;;;;;;;21.42;13.39;99861.66;4467851;32;33882;-81
2022/03/24 08:34:28;;;;;;;;;;;;;;;20.50;14.24;99858.06;4467928;32;34051;-81
2022/03/24 08:36:55;;;;;;;;;;;;;;;20.42;14.76;99865.19;4467925;32;34957;-80
2022/03/24 08:39:23;;;;;;;;;;;;;;;21.49;13.56;99859.75;4467850;32;32851;-81
2022/03/24 08:41:51;;;;;;;;;;;;;;;21.27;13.58;99865.41;4453727;32;35012;-81
2022/03/24 08:44:18;;;;;;;;;;;;;;;20.73;14.19;99856.78;4468170;32;34411;-81
2022/03/24 08:46:45;;;;;;;;;;;;;;;21.82;13.80;99864.31;4467485;32;34284;-81
2022/03/24 08:49:12;;;;;;;;;;;;;;;21.76;13.52;99867.06;4453773;32;33333;-81
2022/03/24 08:51:40;;;;;;;;;;;;;;;21.03;14.15;99868.53;4467792;32;34166;-81
2022/03/24 08:54:07;;;;;;;;;;;;;;;21.70;12.97;99867.19;4467458;32;35256;-81
2022/03/24 08:56:35;;;;;;;;;;;;;;;21.09;14.05;99865.78;4467666;32;33997;-81
2022/03/24 08:59:02;;;;;;;;;;;;;;;21.67;13.16;99861.13;4467853;32;33480;-82
2022/03/24 09:01:29;;;;;;;;;;;;;;;22.20;12.76;99854.69;4453526;32;33867;-81
2022/03/24 09:03:57;;;;;;;;;;;;;;;21.06;13.74;99860.56;4466895;32;33874;-81
2022/03/24 09:06:24;;;;;;;;;;;;;;;22.21;12.87;99853.78;4467680;32;34203;-81
2022/03/24 09:08:52;;;;;;;;;;;;;;;22.19;13.25;99845.00;4467424;32;32848;-81
2022/03/24 09:11:20;;;;;;;;;;;;;;;22.25;12.49;99847.50;4467558;32;35010;-81
2022/03/24 09:13:47;;;;;;;;;;;;;;;21.62;12.79;99854.16;4453117;32;33736;-82
2022/03/24 09:16:15;;;;;;;;;;;;;;;21.75;12.87;99853.94;4467220;32;34098;-81
2022/03/24 09:18:43;;;;;;;;;;;;;;;21.83;13.21;99852.84;4467623;32;34248;-82
2022/03/24 09:21:10;;;;;;;;;;;;;;;21.72;12.99;99843.44;4453433;32;34997;-81
2022/03/24 09:23:37;;;;;;;;;;;;;;;21.30;12.44;99846.03;4453276;32;34275;-81
2022/03/24 09:26:05;;;;;;;;;;;;;;;22.24;12.04;99851.06;4467565;32;33799;-81
2022/03/24 09:28:52;;;;;;;;;;;;;;;22.20;12.00;99841.47;4467371;32;32826;-81
2022/03/24 09:31:20;;;;;;;;;;;;;;;22.60;11.46;99845.75;4467470;32;34136;-82
2022/03/24 09:33:47;;;;;;;;;;;;;;;21.70;12.05;99843.44;4467450;32;34177;-81
2022/03/24 09:36:15;;;;;;;;;;;;;;;21.82;11.76;99843.19;4467407;32;34759;-81
2022/03/24 09:38:42;;;;;;;;;;;;;;;22.25;11.55;99844.00;4467595;32;33433;-81
2022/03/24 09:41:09;;;;;;;;;;;;;;;22.25;11.61;99850.16;4467351;32;34636;-81
2022/03/24 09:43:37;;;;;;;;;;;;;;;21.45;12.26;99847.53;4466958;32;34524;-82
2022/03/24 09:46:04;;;;;;;;;;;;;;;21.37;12.94;99848.56;4453129;32;34534;-81
2022/03/24 09:48:31;;;;;;;;;;;;;;;22.09;12.65;99843.47;4467278;32;35097;-82
2022/03/24 09:50:58;;;;;;;;;;;;;;;21.41;13.21;99853.78;4467045;32;34760;-82
2022/03/24 09:53:26;;;;;;;;;;;;;;;22.18;12.61;99848.56;4467312;32;34821;-81
2022/03/24 09:55:53;;;;;;;;;;;;;;;22.76;12.06;99844.44;4453110;32;34260;-82
2022/03/24 09:58:24;;;;;;;;;;;;;;;22.72;12.25;99861.28;4452782;32;33377;-81
2022/03/24 10:00:51;;;;;;;;;;;;;;;22.75;12.49;99857.72;4467301;32;35110;-81
2022/03/24 10:03:21;;;;;;;;;;;;;;;22.81;12.82;99858.44;4467347;32;34299;-81
2022/03/24 10:05:55;;;;;;;;;;;;;;;22.70;12.68;99867.56;4453203;32;34478;-81
2022/03/24 10:08:23;;;;;;;;;;;;;;;22.71;12.81;99859.56;4452987;32;32888;-81
2022/03/24 10:10:50;;;;;;;;;;;;;;;22.92;13.00;99855.53;4466960;32;34262;-81
2022/03/24 10:13:22;;;;;;;;;;;;;;;23.62;12.63;99855.31;4452632;32;34243;-81
2022/03/24 10:15:50;;;;;;;;;;;;;;;23.94;11.81;99851.75;4453784;32;34442;-81
2022/03/24 10:18:17;;;;;;;;;;;;;;;22.56;12.64;99854.69;4468987;32;32887;-82
2022/03/24 10:20:44;;;;;;;;;;;;;;;23.04;12.57;99855.22;4469388;32;33405;-82
2022/03/24 10:23:12;;;;;;;;;;;;;;;23.47;12.06;99846.03;4455042;32;33837;-81
2022/03/24 10:25:40;;;;;;;;;;;;;;;23.67;11.93;99844.62;4468785;32;35017;-82
2022/03/24 10:28:17;;;;;;;;;;;;;;;23.35;12.08;99846.41;4468556;32;34197;-81
2022/03/24 10:30:52;;;;;;;;;;;;;;;23.55;11.85;99840.53;4454443;32;34244;-82
2022/03/24 10:33:36;;;;;;;;;;;;;;;23.54;12.04;99836.16;4468715;32;34077;-81
2022/03/24 10:36:10;;;;;;;;;;;;;;;23.57;11.58;99836.06;4468386;32;34187;-81
2022/03/24 10:38:39;;;;;;;;;;;;;;;22.67;12.07;99839.41;4454633;32;33785;-82
2022/03/24 10:41:14;;;;;;;;;;;;;;;22.73;11.99;99836.62;4468570;32;33786;-81
2022/03/24 10:43:41;;;;;;;;;;;;;;;23.53;11.63;99832.66;4468601;32;35272;-81
2022/03/24 10:46:15;;;;;;;;;;;;;;;23.72;11.36;99829.47;4468539;32;35035;-81
2022/03/24 10:48:43;;;;;;;;;;;;;;;22.87;12.45;99836.25;4468698;32;33380;-81
2022/03/24 10:51:10;;;;;;;;;;;;;;;24.07;11.18;99835.47;4468786;32;34256;-81
2022/03/24 10:53:41;;;;;;;;;;;;;;;23.76;12.03;99831.97;4454676;32;33192;-82
2022/03/24 10:56:12;;;;;;;;;;;;;;;22.98;12.31;99838.63;4468427;32;34253;-82
2022/03/24 10:58:40;;;;;;;;;;;;;;;23.28;11.34;99829.84;4468660;32;34243;-81
2022/03/24 11:01:12;;;;;;;;;;;;;;;23.23;11.71;99831.75;4468499;32;34253;-81
2022/03/24 11:03:40;;;;;;;;;;;;;;;24.24;11.31;99834.00;4454507;32;34810;-81
2022/03/24 11:06:12;;;;;;;;;;;;;;;23.49;11.17;99822.19;4468541;32;35096;-81
2022/03/24 11:08:40;;;;;;;;;;;;;;;24.10;11.01;99815.03;4468449;32;33433;-82
2022/03/24 11:11:12;;;;;;;;;;;;;;;23.42;11.57;99826.81;4468331;32;34847;-81
2022/03/24 11:13:41;;;;;;;;;;;;;;;24.17;12.24;99816.56;4468789;32;35353;-81
2022/03/24 11:16:09;;;;;;;;;;;;;;;24.10;11.01;99807.09;4454448;32;34176;-81
2022/03/24 11:18:36;;;;;;;;;;;;;;;23.56;11.98;99813.13;4468402;32;34332;-81
2022/03/24 11:21:09;;;;;;;;;;;;;;;24.25;11.19;99803.06;4468483;32;35199;-81
2022/03/24 11:23:39;;;;;;;;;;;;;;;24.06;11.98;99808.09;4468101;32;34167;-81
2022/03/24 11:26:08;;;;;;;;;;;;;;;24.05;12.44;99801.06;4468080;32;35197;-81
2022/03/24 11:28:35;;;;;;;;;;;;;;;23.57;11.64;99804.31;4467716;32;33614;-81
2022/03/24 11:31:07;;;;;;;;;;;;;;;23.61;12.11;99798.00;4468543;32;34079;-81
2022/03/24 11:33:54;;;;;;;;;;;;;;;24.15;10.46;99785.75;4468348;32;34298;-81
2022/03/24 11:36:22;;;;;;;;;;;;;;;24.01;11.15;99792.34;4468444;32;33990;-81
2022/03/24 11:38:51;;;;;;;;;;;;;;;24.61;10.84;99789.50;4454029;32;34301;-82
2022/03/24 11:41:41;;;;;;;;;;;;;;;24.68;11.22;99797.19;4468451;32;34243;-81
2022/03/24 11:44:14;;;;;;;;;;;;;;;23.86;11.43;99781.38;4460502;32;34171;-81
2022/03/24 11:46:48;;;;;;;;;;;;;;;24.07;11.44;99778.03;4454444;32;34073;-82
2022/03/24 11:49:23;;;;;;;;;;;;;;;24.64;10.37;99784.97;4454271;32;34031;-81
2022/03/24 11:52:10;;;;;;;;;;;;;;;23.60;11.44;99769.81;4454261;32;33846;-81
2022/03/24 11:54:38;;;;;;;;;;;;;;;23.81;11.38;99770.06;4468078;32;34530;-81
2022/03/24 11:57:25;;;;;;;;;;;;;;;24.32;11.77;99774.56;4468146;32;34853;-81
2022/03/24 12:00:11;;;;;;;;;;;;;;;24.64;10.53;99766.41;4457768;32;34092;-81
2022/03/24 12:02:43;;;;;;;;;;;;;;;24.69;11.02;99764.44;4468179;32;34569;-82
2022/03/24 12:05:11;;;;;;;;;;;;;;;23.70;11.84;99763.31;4468300;32;35312;-79
2022/03/24 12:07:38;;;;;;;;;;;;;;;23.30;12.07;99756.59;4467964;32;34928;-81
2022/03/24 12:10:09;;;;;;;;;;;;;;;23.66;11.38;99755.50;4467902;32;33419;-81
2022/03/24 12:12:37;;;;;;;;;;;;;;;24.08;10.87;99752.41;4467956;32;34876;-81
2022/03/24 12:15:09;;;;;;;;;;;;;;;23.75;11.39;99749.94;4467805;32;35251;-81
2022/03/24 12:17:36;;;;;;;;;;;;;;;23.89;11.66;99749.50;4467943;32;34140;-81
2022/03/24 12:20:05;;;;;;;;;;;;;;;24.41;10.55;99756.63;4468077;32;34202;-82
2022/03/24 12:22:33;;;;;;;;;;;;;;;23.59;11.62;99762.75;4453871;32;33757;-81
2022/03/24 12:25:00;;;;;;;;;;;;;;;23.92;10.92;99742.34;4454081;32;34261;-81
2022/03/24 12:27:28;;;;;;;;;;;;;;;23.34;11.54;99749.44;4468139;32;34298;-81
2022/03/24 12:30:14;;;;;;;;;;;;;;;23.45;11.53;99743.78;4467885;32;33297;-81
2022/03/24 12:32:42;;;;;;;;;;;;;;;23.92;10.40;99736.19;4468152;32;35210;-81
2022/03/24 12:35:34;;;;;;;;;;;;;;;24.29;10.24;99733.16;4467853;32;34521;-81
2022/03/24 12:38:01;;;;;;;;;;;;;;;23.75;10.87;99732.31;4467754;32;34098;-81
2022/03/24 12:40:28;;;;;;;;;;;;;;;24.31;10.38;99736.59;4466662;32;34316;-81
2022/03/24 12:42:55;;;;;;;;;;;;;;;24.20;10.37;99731.66;4467849;32;33955;-81
2022/03/24 12:45:26;;;;;;;;;;;;;;;23.46;11.14;99727.88;4467796;32;35234;-81
2022/03/24 12:47:57;;;;;;;;;;;;;;;23.57;11.53;99732.84;4467731;32;34226;-81
2022/03/24 12:50:25;;;;;;;;;;;;;;;24.36;11.23;99728.50;4467911;32;33574;-81
2022/03/24 12:52:55;;;;;;;;;;;;;;;24.14;11.11;99726.59;4467440;32;34891;-81
2022/03/24 12:55:31;;;;;;;;;;;;;;;23.83;11.50;99726.75;4467776;32;34378;-81